CheckWX is a tool to help pilots better visualize weather data.  It is not intended as a substitute for an official pre-flight weather briefing.

07:10:29 UTC

PTPN TAF
Pohnpei International Airport
Pohnpei Island, Federated States of Micronesia
PTPN 192329Z 2000/2024 10009KT P6SM VCSH SCT018 SCT130

Jun-20@
00:00 UTC

Jun-20 @ 00:00 UTC

Jun-21@
00:00 UTC

Jun-21 @ 00:00 UTC

PTPN 192329Z 2000/2024 10009KT P6SM VCSH SCT018 SCT130
Wind
  • 100° at 9 KTS
Cloud Levels
  • Scattered at 1,800' AGL
  • Scattered at 13,000' AGL